Terminal Aerodrome Forecast
Issued by NWS

Home | Current Version | Previous Version | Text Only | Print | Product List | Glossary On
Versions: 1 2 3 4 5 6 7 8 9 10 11 12 13 14 15 16 17 18 19
766
FTUS43 KICT 101603 AAA
TAFSLN
TAF AMD
KSLN 101603Z 1016/1112 22013KT P6SM SKC
     FM101800 27015G23KT P6SM SKC
     FM102300 33011KT P6SM SKC
     FM110900 36011KT P6SM SCT015=

USA.gov is the U.S. government's official web portal to all federal, state and local government web resources and services.